Time;durP1;ratioP1;P1;durP2;ratioP2;P2;SDS_P1;SDS_P2;PMS_P1;PMS_P2;Temp;Humidity;BMP_temperature;BMP_pressure;BME280_temperature;BME280_humidity;BME280_pressure;Samples;Min_cycle;Max_cycle;Signal;HPM_P1;HPM_P2
2021/11/23 00:01:25;;;;;;;3.60;2.00;;;6.30;85.00;;;;;;5094728;28;20032;-74
2021/11/23 00:03:51;;;;;;;3.63;1.88;;;6.30;84.90;;;;;;5096014;28;20035;-75
2021/11/23 00:06:17;;;;;;;5.32;2.10;;;6.30;85.00;;;;;;5095827;28;20498;-75
2021/11/23 00:08:43;;;;;;;8.57;2.30;;;6.40;85.00;;;;;;5094529;28;20016;-75
2021/11/23 00:11:09;;;;;;;4.43;2.20;;;6.40;85.00;;;;;;5094393;28;20199;-76
2021/11/23 00:13:35;;;;;;;6.47;1.83;;;6.40;85.00;;;;;;5094501;28;20046;-74
2021/11/23 00:16:01;;;;;;;7.78;2.00;;;6.40;85.00;;;;;;5094241;28;20016;-75
2021/11/23 00:18:26;;;;;;;4.93;1.88;;;6.40;85.00;;;;;;5094397;28;20012;-75
2021/11/23 00:20:52;;;;;;;4.20;1.67;;;6.50;85.00;;;;;;5094357;28;20012;-74
2021/11/23 00:23:18;;;;;;;5.95;2.05;;;6.50;85.00;;;;;;5094252;28;20024;-75
2021/11/23 00:25:44;;;;;;;5.32;1.88;;;6.50;84.90;;;;;;5094328;28;20020;-74
2021/11/23 00:28:11;;;;;;;4.03;1.90;;;6.50;84.90;;;;;;5095397;28;20020;-75
2021/11/23 00:30:38;;;;;;;6.07;2.40;;;6.60;84.90;;;;;;5094087;28;20484;-75
2021/11/23 00:33:04;;;;;;;6.20;2.30;;;6.60;84.70;;;;;;5094474;28;20511;-75
2021/11/23 00:35:30;;;;;;;7.25;2.88;;;6.60;84.60;;;;;;5093912;28;20020;-75
2021/11/23 00:37:56;;;;;;;6.20;2.65;;;6.60;84.50;;;;;;5095259;28;20024;-75
2021/11/23 00:40:22;;;;;;;6.90;2.83;;;6.60;84.40;;;;;;5093961;28;20012;-75
2021/11/23 00:42:49;;;;;;;5.65;2.92;;;6.60;84.30;;;;;;5093816;28;20024;-75
2021/11/23 00:45:15;;;;;;;5.10;2.85;;;6.60;84.20;;;;;;5093783;28;20120;-75
2021/11/23 00:47:41;;;;;;;6.45;3.00;;;6.60;84.30;;;;;;5093778;28;20028;-75
2021/11/23 00:50:09;;;;;;;5.10;2.92;;;6.60;84.20;;;;;;5093656;28;20396;-76
2021/11/23 00:52:35;;;;;;;8.23;2.72;;;6.70;84.70;;;;;;5094997;28;20024;-75
2021/11/23 00:55:01;;;;;;;8.18;2.40;;;6.70;84.00;;;;;;5093283;28;20024;-75
2021/11/23 00:57:27;;;;;;;5.80;2.28;;;6.70;84.00;;;;;;5094816;28;20026;-75
2021/11/23 00:59:52;;;;;;;4.30;2.00;;;6.80;84.10;;;;;;5093538;28;20020;-75
2021/11/23 01:02:18;;;;;;;7.43;1.83;;;6.80;84.10;;;;;;5093444;28;20025;-75
2021/11/23 01:04:45;;;;;;;4.60;2.05;;;6.80;84.10;;;;;;5094721;28;20476;-75
2021/11/23 01:07:10;;;;;;;3.55;1.80;;;6.90;84.10;;;;;;5094725;28;20051;-74
2021/11/23 01:09:36;;;;;;;4.45;1.90;;;6.90;84.10;;;;;;5093771;28;20449;-75
2021/11/23 01:12:02;;;;;;;4.28;2.10;;;6.90;84.00;;;;;;5093279;28;20464;-75
2021/11/23 01:14:28;;;;;;;7.57;2.00;;;7.00;84.10;;;;;;5093136;28;20081;-75
2021/11/23 01:16:53;;;;;;;5.35;2.58;;;7.10;84.20;;;;;;5094457;28;20024;-75
2021/11/23 01:19:19;;;;;;;5.00;1.58;;;7.00;84.10;;;;;;5094409;28;20020;-74
2021/11/23 01:21:45;;;;;;;5.38;1.83;;;7.10;84.10;;;;;;5093000;28;20020;-74
2021/11/23 01:24:13;;;;;;;4.50;2.00;;;7.10;84.00;;;;;;5092937;28;20027;-74
2021/11/23 01:26:41;;;;;;;5.03;1.75;;;7.20;84.10;;;;;;5092954;28;20484;-74
2021/11/23 01:29:07;;;;;;;6.00;1.77;;;7.20;84.10;;;;;;5092893;28;20119;-74
2021/11/23 01:31:33;;;;;;;5.75;2.10;;;7.30;84.10;;;;;;5092864;28;20535;-75
2021/11/23 01:33:59;;;;;;;6.50;1.95;;;7.30;84.10;;;;;;5092735;28;20047;-74
2021/11/23 01:36:24;;;;;;;3.65;1.80;;;7.30;84.00;;;;;;5092655;28;20569;-74
2021/11/23 01:38:50;;;;;;;3.00;1.58;;;7.30;84.10;;;;;;5092741;28;20494;-74
2021/11/23 01:41:16;;;;;;;2.65;1.58;;;7.40;84.00;;;;;;5094011;28;20024;-74
2021/11/23 01:43:42;;;;;;;5.38;1.77;;;7.40;84.00;;;;;;5092559;28;20016;-74
2021/11/23 01:46:09;;;;;;;4.50;1.58;;;7.40;84.00;;;;;;5092474;28;20024;-74
2021/11/23 01:48:35;;;;;;;3.28;1.50;;;7.40;84.00;;;;;;5092558;28;20024;-74
2021/11/23 01:51:02;;;;;;;3.92;1.55;;;7.40;84.00;;;;;;5092534;28;20549;-74
2021/11/23 01:53:28;;;;;;;3.45;1.48;;;7.40;84.00;;;;;;5093736;28;20027;-74
2021/11/23 01:55:54;;;;;;;3.40;1.70;;;7.40;84.00;;;;;;5092105;28;20170;-74
2021/11/23 01:58:21;;;;;;;5.10;1.80;;;7.50;84.30;;;;;;5093823;28;20480;-74
2021/11/23 02:00:47;;;;;;;3.92;1.40;;;7.50;84.10;;;;;;5093724;28;20030;-74
2021/11/23 02:03:14;;;;;;;6.38;1.70;;;7.40;84.00;;;;;;5092262;28;20028;-74
2021/11/23 02:05:40;;;;;;;3.47;1.63;;;7.50;84.10;;;;;;5093488;28;20391;-75
2021/11/23 02:08:07;;;;;;;4.28;1.50;;;7.50;84.10;;;;;;5092252;28;20027;-74
2021/11/23 02:10:33;;;;;;;2.83;1.52;;;7.50;84.20;;;;;;5092141;28;20031;-74
2021/11/23 02:12:59;;;;;;;5.85;1.70;;;7.50;84.30;;;;;;5093409;28;20487;-75
2021/11/23 02:15:25;;;;;;;5.10;2.05;;;7.50;84.30;;;;;;5092404;28;20139;-74
2021/11/23 02:17:51;;;;;;;5.78;2.15;;;7.60;84.30;;;;;;5093288;28;20047;-74
2021/11/23 02:20:20;;;;;;;4.47;2.00;;;7.60;84.30;;;;;;5093191;28;20035;-74
2021/11/23 02:22:46;;;;;;;6.60;1.90;;;7.60;84.20;;;;;;5091942;28;20365;-74
2021/11/23 02:25:13;;;;;;;6.47;1.75;;;7.60;84.20;;;;;;5091947;28;20081;-74
2021/11/23 02:27:39;;;;;;;4.78;1.95;;;7.60;84.20;;;;;;5091898;28;20475;-75
2021/11/23 02:30:07;;;;;;;5.55;2.28;;;7.60;84.20;;;;;;5091818;28;20028;-74
2021/11/23 02:32:51;;;;;;;5.63;2.45;;;7.60;84.20;;;;;;5091903;28;20516;-74
2021/11/23 02:35:17;;;;;;;5.32;2.60;;;7.60;84.20;;;;;;5091705;28;20036;-74
2021/11/23 02:37:45;;;;;;;6.28;2.95;;;7.60;84.20;;;;;;5091679;28;20169;-75
2021/11/23 02:40:11;;;;;;;8.65;2.88;;;7.60;84.20;;;;;;5093196;28;20103;-74
2021/11/23 02:42:37;;;;;;;4.40;2.80;;;7.60;84.20;;;;;;5092952;28;20100;-74
2021/11/23 02:45:04;;;;;;;6.28;3.13;;;7.60;84.10;;;;;;5092928;28;20520;-74
2021/11/23 02:47:39;;;;;;;6.25;3.03;;;7.60;84.10;;;;;;5091699;28;20028;-74
2021/11/23 02:50:08;;;;;;;5.65;2.85;;;7.50;84.10;;;;;;5091969;28;20031;-74
2021/11/23 02:52:33;;;;;;;5.70;2.70;;;7.50;84.10;;;;;;5091595;28;20109;-74
2021/11/23 02:55:03;;;;;;;7.32;3.60;;;7.50;84.10;;;;;;5091413;28;20436;-74
2021/11/23 02:57:30;;;;;;;7.45;3.53;;;7.40;84.10;;;;;;5091601;28;20031;-74
2021/11/23 02:59:56;;;;;;;5.47;3.08;;;7.40;84.00;;;;;;5091570;28;20035;-74
2021/11/23 03:02:22;;;;;;;5.15;3.30;;;7.40;84.10;;;;;;5091542;28;20050;-74
2021/11/23 03:04:53;;;;;;;5.68;3.30;;;7.40;84.20;;;;;;5091524;28;20032;-74
2021/11/23 03:07:19;;;;;;;6.45;3.50;;;7.40;84.10;;;;;;5091471;28;20130;-74
2021/11/23 03:09:45;;;;;;;6.07;3.38;;;7.40;84.10;;;;;;5091274;28;20020;-74
2021/11/23 03:12:21;;;;;;;7.20;3.33;;;7.30;84.10;;;;;;5091231;28;20038;-74
2021/11/23 03:14:48;;;;;;;5.65;2.90;;;7.30;84.10;;;;;;5091246;28;20490;-74
2021/11/23 03:17:16;;;;;;;8.18;3.70;;;7.30;84.10;;;;;;5092595;28;20392;-75
2021/11/23 03:19:42;;;;;;;9.18;4.30;;;7.40;84.20;;;;;;5091405;28;20491;-75
2021/11/23 03:22:09;;;;;;;7.10;3.83;;;7.30;84.10;;;;;;5091358;28;20028;-74
2021/11/23 03:24:35;;;;;;;5.15;3.45;;;7.40;84.10;;;;;;5091284;28;20110;-74
2021/11/23 03:27:00;;;;;;;7.82;3.55;;;7.40;84.10;;;;;;5091302;28;20140;-74
2021/11/23 03:29:27;;;;;;;7.30;3.88;;;7.40;84.10;;;;;;5091378;28;20384;-74
2021/11/23 03:31:53;;;;;;;5.38;3.25;;;7.40;84.10;;;;;;5091314;28;20020;-74
2021/11/23 03:34:20;;;;;;;7.55;3.67;;;7.40;84.20;;;;;;5096404;28;20104;-73
2021/11/23 03:36:46;;;;;;;7.32;3.75;;;7.40;84.20;;;;;;5094944;28;20024;-74
2021/11/23 03:39:11;;;;;;;6.53;3.55;;;7.50;84.20;;;;;;5094997;28;20538;-74
2021/11/23 03:41:37;;;;;;;4.85;3.55;;;7.50;84.20;;;;;;5094967;28;20096;-74
2021/11/23 03:47:30;;;;;;;5.60;3.40;;;7.50;84.10;;;;;;5096199;28;20447;-74
2021/11/23 03:49:58;;;;;;;6.97;3.65;;;7.50;84.20;;;;;;5094759;28;20592;-74
2021/11/23 03:52:24;;;;;;;6.72;3.65;;;7.40;84.10;;;;;;5094693;28;20086;-74
2021/11/23 03:54:50;;;;;;;6.20;3.72;;;7.40;84.10;;;;;;5094281;28;20016;-75
2021/11/23 03:57:16;;;;;;;7.57;4.10;;;7.40;84.20;;;;;;5095872;28;20081;-74
2021/11/23 03:59:47;;;;;;;7.88;4.05;;;7.30;84.20;;;;;;5094612;28;20077;-75
2021/11/23 04:02:13;;;;;;;7.43;3.85;;;7.30;84.20;;;;;;5094538;28;20020;-74
2021/11/23 04:04:39;;;;;;;6.57;3.80;;;7.30;84.30;;;;;;5095887;28;20036;-74
2021/11/23 04:07:04;;;;;;;7.28;3.90;;;7.30;84.30;;;;;;5094370;28;20476;-74
2021/11/23 04:09:30;;;;;;;5.97;3.70;;;7.30;84.30;;;;;;5094479;28;20024;-73
2021/11/23 04:11:55;;;;;;;7.60;4.00;;;7.40;84.40;;;;;;5094400;28;20532;-74
2021/11/23 04:14:21;;;;;;;7.65;4.13;;;7.40;84.30;;;;;;5094147;28;20385;-75
2021/11/23 04:16:47;;;;;;;5.80;3.60;;;7.40;84.30;;;;;;5094199;28;20027;-74
2021/11/23 04:19:13;;;;;;;9.45;3.80;;;7.40;84.20;;;;;;5095632;28;20020;-74
2021/11/23 04:21:38;;;;;;;7.60;4.03;;;7.50;84.30;;;;;;5094244;28;20051;-74
2021/11/23 04:24:04;;;;;;;7.18;3.90;;;7.50;84.20;;;;;;5094117;28;20061;-74
2021/11/23 04:26:30;;;;;;;6.97;3.88;;;7.50;84.20;;;;;;5094079;28;20091;-74
2021/11/23 04:28:55;;;;;;;12.35;4.43;;;7.50;84.20;;;;;;5094005;28;20032;-74
2021/11/23 04:31:21;;;;;;;6.80;4.05;;;7.50;84.10;;;;;;5095219;28;20028;-74
2021/11/23 04:33:46;;;;;;;6.68;3.83;;;7.50;84.10;;;;;;5093942;28;20024;-74
2021/11/23 04:36:12;;;;;;;7.25;4.40;;;7.60;84.20;;;;;;5093768;28;20032;-73
2021/11/23 04:38:38;;;;;;;5.82;3.83;;;7.50;84.10;;;;;;5093808;28;20031;-73
2021/11/23 04:41:03;;;;;;;6.07;4.13;;;7.50;84.10;;;;;;5093864;28;20024;-74
2021/11/23 04:43:29;;;;;;;7.18;4.25;;;7.50;84.10;;;;;;5092924;28;20035;-74
2021/11/23 04:45:56;;;;;;;10.15;3.92;;;7.50;84.20;;;;;;5093297;28;20496;-75
2021/11/23 04:48:22;;;;;;;7.10;4.03;;;7.50;84.30;;;;;;5093622;28;20111;-74
2021/11/23 04:50:47;;;;;;;6.05;3.75;;;7.50;84.30;;;;;;5093659;28;20475;-75
2021/11/23 04:53:13;;;;;;;5.22;3.40;;;7.50;84.20;;;;;;5093559;28;20024;-75
2021/11/23 04:55:39;;;;;;;6.10;3.63;;;7.50;84.30;;;;;;5094563;28;20169;-75
2021/11/23 04:58:05;;;;;;;5.35;3.53;;;7.50;84.40;;;;;;5094799;28;20047;-74
2021/11/23 05:00:30;;;;;;;6.18;3.60;;;7.60;84.40;;;;;;5094728;28;20025;-74
2021/11/23 05:02:56;;;;;;;7.07;3.67;;;7.60;84.40;;;;;;5094780;28;20050;-74
2021/11/23 05:05:22;;;;;;;6.20;3.63;;;7.60;84.30;;;;;;5093233;28;20031;-74
2021/11/23 05:07:47;;;;;;;5.35;3.83;;;7.60;84.30;;;;;;5093410;28;20031;-75
2021/11/23 05:10:14;;;;;;;5.22;3.40;;;7.60;84.30;;;;;;5093324;28;20541;-76
2021/11/23 05:12:40;;;;;;;8.90;3.67;;;7.60;84.40;;;;;;5094464;28;20032;-74
2021/11/23 05:15:07;;;;;;;8.52;3.42;;;7.60;84.40;;;;;;5093105;28;20730;-74
2021/11/23 05:17:32;;;;;;;7.15;3.88;;;7.60;84.40;;;;;;5093174;28;20027;-74
2021/11/23 05:19:58;;;;;;;7.70;3.20;;;7.50;84.40;;;;;;5093043;28;20474;-75
2021/11/23 05:22:24;;;;;;;5.60;3.58;;;7.50;84.50;;;;;;5093090;28;20016;-75
2021/11/23 05:24:49;;;;;;;8.52;3.60;;;7.50;84.60;;;;;;5094303;28;20024;-74
2021/11/23 05:27:15;;;;;;;7.38;3.65;;;7.50;84.60;;;;;;5093121;28;20039;-74
2021/11/23 05:29:41;;;;;;;6.25;3.58;;;7.50;84.70;;;;;;5094246;28;20451;-75
2021/11/23 05:32:07;;;;;;;6.68;3.67;;;7.60;84.60;;;;;;5094103;28;20032;-75
2021/11/23 05:34:33;;;;;;;7.55;3.42;;;7.60;84.60;;;;;;5092797;28;20024;-74
2021/11/23 05:36:59;;;;;;;9.23;3.55;;;7.60;84.70;;;;;;5092575;28;20447;-74
2021/11/23 05:39:26;;;;;;;5.90;3.28;;;7.70;84.70;;;;;;5093993;28;20028;-74
2021/11/23 05:41:51;;;;;;;6.90;3.60;;;7.70;84.70;;;;;;5094147;28;20024;-75
2021/11/23 05:44:17;;;;;;;7.13;3.58;;;7.70;84.70;;;;;;5092707;28;20119;-75
2021/11/23 05:50:05;;;;;;;5.03;3.20;;;7.70;84.70;;;;;;5093992;28;20107;-74
2021/11/23 05:52:31;;;;;;;6.32;3.40;;;7.70;84.80;;;;;;5092420;28;20038;-75
2021/11/23 05:54:57;;;;;;;6.75;3.35;;;7.70;84.80;;;;;;5091864;28;20103;-75
2021/11/23 05:57:23;;;;;;;7.13;3.22;;;7.70;84.80;;;;;;5093653;28;20024;-75
2021/11/23 05:59:48;;;;;;;6.85;3.08;;;7.60;84.80;;;;;;5093658;28;20024;-75
2021/11/23 06:02:14;;;;;;;10.52;3.60;;;7.70;84.90;;;;;;5093588;28;20035;-74
2021/11/23 06:04:40;;;;;;;6.45;3.80;;;7.70;84.90;;;;;;5092259;28;20035;-74
2021/11/23 06:07:06;;;;;;;6.53;3.33;;;7.70;84.90;;;;;;5093409;28;20157;-75
2021/11/23 06:09:31;;;;;;;5.38;3.42;;;7.60;84.90;;;;;;5093498;28;20077;-74
2021/11/23 06:11:57;;;;;;;6.53;3.50;;;7.60;85.00;;;;;;5093447;28;20099;-75
2021/11/23 06:14:23;;;;;;;6.10;3.42;;;7.60;85.00;;;;;;5091997;28;20521;-75
2021/11/23 06:16:48;;;;;;;7.30;3.25;;;7.60;85.00;;;;;;5092007;28;20389;-74
2021/11/23 06:19:14;;;;;;;6.43;3.50;;;7.60;85.10;;;;;;5091933;28;20027;-74
2021/11/23 06:21:43;;;;;;;7.10;3.63;;;7.60;85.10;;;;;;5093321;28;20444;-75
2021/11/23 06:24:10;;;;;;;5.47;3.28;;;7.60;85.20;;;;;;5091988;28;20487;-74
2021/11/23 06:26:36;;;;;;;7.97;3.42;;;7.60;85.30;;;;;;5091959;28;20080;-74
2021/11/23 06:29:03;;;;;;;7.45;3.42;;;7.60;85.30;;;;;;5091736;28;20036;-74
2021/11/23 06:31:29;;;;;;;7.03;3.35;;;7.50;85.30;;;;;;5091934;28;20483;-74
2021/11/23 06:33:55;;;;;;;7.50;3.45;;;7.50;85.40;;;;;;5091707;28;20084;-74
2021/11/23 06:36:22;;;;;;;7.13;4.13;;;7.50;85.50;;;;;;5091546;28;20032;-74
2021/11/23 06:38:50;;;;;;;6.18;3.35;;;7.50;85.60;;;;;;5091606;28;20065;-74
2021/11/23 06:41:16;;;;;;;7.80;3.40;;;7.50;85.70;;;;;;5091635;28;20031;-75
2021/11/23 06:43:42;;;;;;;6.55;3.13;;;7.60;85.90;;;;;;5091754;28;20016;-74
2021/11/23 06:46:07;;;;;;;5.40;3.40;;;7.60;86.10;;;;;;5092878;28;20511;-74
2021/11/23 06:48:33;;;;;;;8.80;3.78;;;7.70;86.20;;;;;;5091699;28;20103;-73
2021/11/23 06:50:59;;;;;;;6.55;3.55;;;7.70;86.30;;;;;;5091576;28;20081;-73
2021/11/23 06:53:24;;;;;;;6.85;2.92;;;7.80;86.70;;;;;;5092926;28;20081;-74
2021/11/23 06:55:50;;;;;;;5.70;3.28;;;7.80;86.70;;;;;;5092518;28;20070;-74
2021/11/23 06:58:17;;;;;;;5.38;3.47;;;7.90;87.00;;;;;;5091383;28;20431;-74
2021/11/23 07:00:42;;;;;;;7.25;3.63;;;7.90;87.00;;;;;;5092888;28;20125;-74
2021/11/23 07:03:08;;;;;;;9.30;3.80;;;7.90;87.20;;;;;;5091552;28;20526;-74
2021/11/23 07:05:34;;;;;;;7.55;3.80;;;7.90;87.40;;;;;;5091561;28;20496;-74
2021/11/23 07:08:00;;;;;;;6.43;3.47;;;7.90;87.60;;;;;;5093523;28;20035;-74
2021/11/23 07:10:26;;;;;;;7.93;3.53;;;8.00;87.70;;;;;;5095552;28;20032;-74
2021/11/23 07:12:52;;;;;;;6.90;3.47;;;8.00;87.90;;;;;;5096709;28;20115;-74
2021/11/23 07:15:18;;;;;;;6.68;3.75;;;8.00;88.00;;;;;;5096562;28;20476;-74
2021/11/23 07:17:44;;;;;;;5.05;3.17;;;8.00;88.00;;;;;;5096799;28;20510;-74
2021/11/23 07:20:10;;;;;;;7.05;3.55;;;8.00;88.10;;;;;;5095103;28;20162;-74
2021/11/23 07:22:36;;;;;;;5.68;3.40;;;8.00;88.20;;;;;;5096529;28;20036;-74
2021/11/23 07:25:02;;;;;;;7.88;3.90;;;8.00;88.10;;;;;;5096619;28;20037;-74
2021/11/23 07:27:27;;;;;;;7.40;3.45;;;8.00;88.10;;;;;;5095214;28;20480;-74
2021/11/23 07:29:53;;;;;;;5.18;3.53;;;8.10;88.20;;;;;;5096558;28;20028;-74
2021/11/23 07:32:19;;;;;;;6.88;3.90;;;8.10;88.10;;;;;;5095032;28;20111;-73
2021/11/23 07:34:44;;;;;;;8.10;3.47;;;8.20;88.20;;;;;;5095009;28;20116;-74
2021/11/23 07:37:10;;;;;;;6.18;3.05;;;8.20;88.10;;;;;;5096378;28;20031;-74
2021/11/23 07:39:36;;;;;;;6.50;4.15;;;8.30;88.10;;;;;;5095077;28;20063;-74
2021/11/23 07:42:04;;;;;;;6.68;4.35;;;8.30;88.10;;;;;;5094951;28;20483;-74
2021/11/23 07:44:30;;;;;;;9.40;4.30;;;8.40;88.10;;;;;;5095281;28;20039;-74
2021/11/23 07:46:55;;;;;;;5.85;4.20;;;8.40;88.10;;;;;;5096121;28;20028;-74
2021/11/23 07:49:21;;;;;;;4.03;3.63;;;8.40;88.10;;;;;;5094873;28;20399;-75
2021/11/23 07:51:48;;;;;;;6.90;4.30;;;8.40;88.10;;;;;;5095057;28;20464;-75
2021/11/23 07:54:14;;;;;;;5.07;3.80;;;8.50;88.10;;;;;;5096020;28;20031;-75
2021/11/23 07:56:42;;;;;;;5.70;4.30;;;8.50;88.10;;;;;;5094558;28;20036;-75
2021/11/23 07:59:08;;;;;;;4.18;3.35;;;8.50;88.10;;;;;;5094652;28;20039;-74
2021/11/23 08:01:34;;;;;;;4.20;2.88;;;8.50;88.10;;;;;;5094701;28;20024;-75
2021/11/23 08:04:00;;;;;;;4.78;3.42;;;8.50;88.20;;;;;;5094502;28;20111;-75
2021/11/23 08:06:26;;;;;;;5.05;3.33;;;8.60;88.30;;;;;;5094640;28;20061;-74
2021/11/23 08:08:51;;;;;;;4.80;3.13;;;8.60;88.30;;;;;;5095827;28;20032;-74
2021/11/23 08:11:17;;;;;;;4.43;3.22;;;8.60;88.90;;;;;;5094462;28;20062;-74
2021/11/23 08:13:43;;;;;;;3.70;3.10;;;8.70;88.40;;;;;;5094781;28;20114;-74
2021/11/23 08:16:08;;;;;;;4.15;3.33;;;8.70;88.30;;;;;;5094351;28;20518;-74
2021/11/23 08:18:35;;;;;;;4.30;3.28;;;8.80;88.40;;;;;;5094149;28;20499;-75
2021/11/23 08:21:01;;;;;;;4.88;3.30;;;8.80;88.30;;;;;;5094326;28;20023;-75
2021/11/23 08:23:27;;;;;;;5.28;3.20;;;8.80;88.30;;;;;;5094164;28;20550;-75
2021/11/23 08:25:54;;;;;;;3.75;3.28;;;8.90;88.30;;;;;;5095561;28;20112;-74
2021/11/23 08:28:24;;;;;;;4.82;3.83;;;8.90;88.30;;;;;;5094166;28;20380;-76
2021/11/23 08:30:50;;;;;;;5.57;3.70;;;8.90;88.40;;;;;;5095321;28;20028;-73
2021/11/23 08:33:16;;;;;;;5.63;3.28;;;8.80;88.30;;;;;;5094116;28;20070;-74
2021/11/23 08:35:42;;;;;;;5.07;3.97;;;8.80;88.40;;;;;;5095165;28;20060;-74
2021/11/23 08:38:08;;;;;;;7.97;5.38;;;8.70;88.40;;;;;;5095307;28;20492;-75
2021/11/23 08:40:33;;;;;;;4.63;3.90;;;8.70;88.50;;;;;;5094045;28;20028;-75
2021/11/23 08:42:59;;;;;;;5.18;3.80;;;8.60;88.50;;;;;;5093917;28;20035;-74
2021/11/23 08:45:26;;;;;;;7.53;3.90;;;8.60;88.50;;;;;;5093781;28;20027;-75
2021/11/23 08:47:51;;;;;;;7.88;4.22;;;8.60;88.60;;;;;;5093715;28;20020;-73
2021/11/23 08:50:18;;;;;;;4.97;3.67;;;8.60;88.70;;;;;;5094873;28;20466;-73
2021/11/23 08:52:45;;;;;;;7.97;4.00;;;8.60;88.60;;;;;;5094871;28;20077;-73
2021/11/23 08:55:11;;;;;;;5.88;3.83;;;8.60;88.50;;;;;;5094518;28;20442;-73
2021/11/23 08:57:39;;;;;;;5.00;4.20;;;8.60;88.50;;;;;;5094718;28;20024;-73
2021/11/23 09:02:38;;;;;;;7.13;4.38;;;8.60;88.50;;;;;;5095166;28;20115;-73
2021/11/23 09:05:05;;;;;;;7.50;4.65;;;8.70;88.60;;;;;;5093333;28;20018;-75
2021/11/23 09:07:30;;;;;;;5.80;4.68;;;8.70;88.50;;;;;;5093383;28;20028;-75
2021/11/23 09:09:56;;;;;;;5.65;4.10;;;8.80;88.50;;;;;;5094605;28;20024;-74
2021/11/23 09:12:22;;;;;;;8.95;4.78;;;8.80;88.50;;;;;;5093575;28;20046;-74
2021/11/23 09:14:47;;;;;;;5.72;4.40;;;8.90;88.50;;;;;;5093145;28;20024;-75
2021/11/23 09:17:13;;;;;;;6.95;4.03;;;9.00;88.50;;;;;;5092979;28;20538;-75
2021/11/23 09:19:40;;;;;;;6.07;4.60;;;9.10;88.40;;;;;;5092963;28;20016;-75
2021/11/23 09:22:06;;;;;;;8.63;4.97;;;9.20;88.30;;;;;;5094246;28;20042;-76
2021/11/23 09:24:32;;;;;;;7.35;4.70;;;9.30;88.20;;;;;;5092963;28;20052;-75
2021/11/23 09:26:58;;;;;;;5.80;4.32;;;9.40;88.10;;;;;;5093006;28;20016;-74
2021/11/23 09:29:24;;;;;;;8.30;4.75;;;9.40;88.10;;;;;;5092678;28;20077;-75
2021/11/23 09:31:50;;;;;;;8.38;4.45;;;9.50;88.00;;;;;;5092453;28;20059;-75
2021/11/23 09:34:18;;;;;;;5.97;4.15;;;9.60;88.10;;;;;;5092870;28;20399;-74
2021/11/23 09:36:44;;;;;;;7.78;4.82;;;9.70;88.10;;;;;;5092744;28;20051;-75
2021/11/23 09:39:10;;;;;;;5.97;4.57;;;9.70;88.00;;;;;;5092615;28;20047;-75
2021/11/23 09:41:37;;;;;;;5.75;4.28;;;9.80;88.00;;;;;;5094013;28;20464;-75
2021/11/23 09:44:03;;;;;;;5.25;4.43;;;9.80;88.00;;;;;;5092554;28;20059;-74
2021/11/23 09:46:38;;;;;;;6.88;4.32;;;9.90;88.00;;;;;;5093846;28;20071;-75
2021/11/23 09:49:06;;;;;;;10.23;4.82;;;9.90;88.00;;;;;;5092549;28;20028;-75
2021/11/23 09:51:33;;;;;;;8.18;4.30;;;10.00;88.00;;;;;;5094262;28;20125;-75
2021/11/23 09:54:05;;;;;;;7.00;4.00;;;10.00;88.10;;;;;;5092450;28;20027;-75
2021/11/23 09:56:31;;;;;;;6.07;3.55;;;10.00;88.10;;;;;;5093583;28;20044;-75
2021/11/23 09:58:57;;;;;;;4.05;3.45;;;10.00;88.10;;;;;;5093785;28;20023;-75
2021/11/23 10:01:25;;;;;;;5.88;3.60;;;10.00;88.10;;;;;;5093670;28;20463;-76
2021/11/23 10:03:53;;;;;;;5.35;3.55;;;10.10;88.10;;;;;;5093896;28;20065;-76
2021/11/23 10:06:22;;;;;;;4.78;3.47;;;10.10;88.10;;;;;;5092482;28;20027;-76
2021/11/23 10:08:49;;;;;;;4.57;3.40;;;10.00;88.20;;;;;;5092857;28;20476;-76
2021/11/23 10:11:27;;;;;;;4.07;3.35;;;10.00;88.30;;;;;;5092724;28;20023;-76
2021/11/23 10:13:56;;;;;;;4.20;3.25;;;10.00;88.30;;;;;;5092712;28;20028;-77
2021/11/23 10:16:23;;;;;;;4.60;3.28;;;10.00;88.40;;;;;;5092548;28;20096;-76
2021/11/23 10:18:50;;;;;;;4.63;3.45;;;9.90;88.40;;;;;;5092654;28;20016;-76
2021/11/23 10:21:19;;;;;;;5.57;3.53;;;9.90;88.60;;;;;;5092698;28;20012;-76
2021/11/23 10:23:47;;;;;;;4.35;3.40;;;9.80;88.60;;;;;;5092519;28;20016;-76
2021/11/23 10:26:20;;;;;;;4.78;3.78;;;9.80;88.70;;;;;;5093502;28;20025;-76
2021/11/23 10:28:51;;;;;;;13.77;3.70;;;9.80;88.80;;;;;;5093508;28;20028;-77
2021/11/23 10:31:18;;;;;;;4.93;4.10;;;9.90;88.80;;;;;;5092123;28;20399;-75
2021/11/23 10:33:44;;;;;;;11.27;4.10;;;9.90;88.70;;;;;;5092139;28;20089;-77
2021/11/23 10:36:14;;;;;;;5.57;4.13;;;10.00;88.70;;;;;;5092082;28;20024;-77
2021/11/23 10:38:41;;;;;;;5.20;4.00;;;10.00;88.60;;;;;;5092146;28;20017;-77
2021/11/23 10:41:09;;;;;;;5.18;3.70;;;10.00;88.70;;;;;;5091937;28;20020;-77
2021/11/23 10:43:38;;;;;;;5.72;3.88;;;10.00;88.70;;;;;;5091945;28;20089;-77
2021/11/23 10:46:11;;;;;;;4.72;3.70;;;10.10;88.70;;;;;;5091723;28;20118;-76
2021/11/23 10:48:37;;;;;;;7.25;3.97;;;10.10;88.60;;;;;;5091729;28;20034;-75
2021/11/23 10:51:08;;;;;;;5.20;3.63;;;10.20;88.60;;;;;;5093075;28;20103;-76
2021/11/23 10:53:36;;;;;;;6.47;3.20;;;10.20;88.50;;;;;;5093085;28;20099;-76
2021/11/23 10:56:11;;;;;;;6.35;3.50;;;10.20;88.50;;;;;;5092861;28;20043;-78
2021/11/23 10:58:37;;;;;;;4.32;3.10;;;10.40;88.40;;;;;;5091679;28;20032;-76
2021/11/23 11:01:05;;;;;;;4.50;3.10;;;10.40;88.30;;;;;;5091616;28;20019;-79
2021/11/23 11:03:32;;;;;;;4.07;3.15;;;10.40;88.20;;;;;;5091707;28;20024;-77
2021/11/23 11:06:03;;;;;;;6.32;3.28;;;10.40;88.20;;;;;;5091772;28;20081;-78
2021/11/23 11:08:34;;;;;;;5.40;3.15;;;10.40;88.20;;;;;;5091674;28;20031;-78
2021/11/23 11:11:00;;;;;;;3.97;2.90;;;10.40;88.30;;;;;;5091667;28;20559;-78
2021/11/23 11:13:27;;;;;;;5.38;3.60;;;10.30;88.30;;;;;;5091715;28;20035;-77
2021/11/23 11:15:56;;;;;;;7.35;3.35;;;10.40;88.30;;;;;;5091677;28;20552;-77
2021/11/23 11:18:22;;;;;;;5.10;3.08;;;10.40;88.30;;;;;;5092935;28;20021;-77
2021/11/23 11:21:08;;;;;;;5.47;3.25;;;10.50;88.30;;;;;;5091565;28;20024;-77
2021/11/23 11:23:42;;;;;;;4.07;2.83;;;10.70;88.20;;;;;;5091482;28;20024;-77
2021/11/23 11:26:25;;;;;;;4.28;2.60;;;10.80;88.00;;;;;;5091494;28;20028;-77
2021/11/23 11:29:01;;;;;;;4.20;2.73;;;10.90;87.70;;;;;;5091440;28;20483;-77
2021/11/23 11:31:42;;;;;;;4.20;2.45;;;11.00;87.40;;;;;;5091375;28;20042;-77
2021/11/23 11:34:31;;;;;;;4.40;2.67;;;11.00;87.30;;;;;;5091271;28;20127;-78
2021/11/23 11:37:01;;;;;;;5.57;2.80;;;11.00;87.30;;;;;;5091184;28;20043;-77
2021/11/23 11:39:36;;;;;;;4.25;2.58;;;11.00;87.20;;;;;;5091249;28;20030;-76
2021/11/23 11:42:11;;;;;;;7.18;2.70;;;11.00;87.20;;;;;;5091704;28;20543;-77
2021/11/23 11:44:42;;;;;;;6.05;2.50;;;11.00;87.20;;;;;;5092537;28;20024;-76
2021/11/23 11:47:12;;;;;;;7.30;2.90;;;11.00;87.10;;;;;;5091284;28;20051;-77
2021/11/23 11:49:53;;;;;;;4.55;2.47;;;11.00;87.10;;;;;;5091189;28;20016;-78
2021/11/23 11:52:28;;;;;;;4.88;2.40;;;11.00;87.20;;;;;;5091378;28;20051;-78
2021/11/23 11:55:12;;;;;;;4.95;2.70;;;11.00;87.20;;;;;;5094389;28;20508;-77
2021/11/23 11:57:42;;;;;;;5.90;2.60;;;11.00;87.20;;;;;;5094851;28;20047;-78
2021/11/23 12:00:33;;;;;;;5.00;2.90;;;11.00;87.10;;;;;;5094840;28;20024;-79
2021/11/23 12:03:11;;;;;;;4.50;2.40;;;10.90;87.00;;;;;;5096020;28;20020;-77
2021/11/23 12:06:06;;;;;;;5.90;2.30;;;10.90;87.10;;;;;;5094967;28;20056;-77
2021/11/23 12:08:34;;;;;;;4.85;2.72;;;10.90;87.10;;;;;;5093306;28;20123;-77
2021/11/23 12:11:09;;;;;;;3.60;2.40;;;10.90;87.10;;;;;;5094605;28;20065;-78
2021/11/23 12:14:30;;;;;;;6.20;2.70;;;10.80;87.10;;;;;;5094615;28;20028;-77
2021/11/23 12:17:14;;;;;;;5.15;2.53;;;10.80;87.20;;;;;;5094230;28;20436;-78
2021/11/23 12:20:20;;;;;;;4.15;2.60;;;10.70;87.30;;;;;;5095290;28;20032;-79
2021/11/23 12:22:50;;;;;;;5.43;2.85;;;10.70;87.40;;;;;;5094119;28;20479;-78
2021/11/23 12:25:19;;;;;;;4.53;2.50;;;10.70;87.50;;;;;;5094326;28;20059;-78
2021/11/23 12:27:47;;;;;;;4.75;2.70;;;10.70;87.50;;;;;;5094338;28;20020;-80
2021/11/23 12:30:59;;;;;;;4.32;2.75;;;10.80;87.60;;;;;;5094622;28;20020;-80
2021/11/23 12:33:25;;;;;;;4.07;2.80;;;10.80;87.60;;;;;;5093981;28;20563;-77
2021/11/23 12:35:51;;;;;;;4.68;2.90;;;10.80;88.10;;;;;;5094037;28;20111;-79
2021/11/23 12:38:36;;;;;;;3.83;2.97;;;10.80;87.50;;;;;;5095360;28;20020;-79
2021/11/23 12:44:34;;;;;;;3.88;2.70;;;11.00;87.50;;;;;;5095560;28;20023;-79
2021/11/23 12:47:10;;;;;;;4.55;2.80;;;11.00;87.40;;;;;;5093678;28;20026;-79
2021/11/23 12:49:38;;;;;;;6.40;3.00;;;11.10;87.30;;;;;;5095222;28;20016;-79
2021/11/23 12:52:51;;;;;;;4.22;2.90;;;11.10;87.90;;;;;;5095105;28;20031;-79
2021/11/23 12:55:18;;;;;;;6.38;2.90;;;11.10;87.30;;;;;;5093222;28;20047;-79
2021/11/23 13:01:06;;;;;;;4.38;2.97;;;11.20;87.30;;;;;;5095835;28;20067;-78
2021/11/23 13:07:08;;;;;;;3.63;3.03;;;11.30;87.10;;;;;;5095433;28;20053;-78
2021/11/23 13:13:01;;;;;;;3.00;2.53;;;11.40;87.00;;;;;;5095067;28;20507;-79
2021/11/23 13:15:29;;;;;;;6.53;3.20;;;11.40;87.60;;;;;;5094632;28;20055;-79
2021/11/23 13:18:03;;;;;;;6.05;3.40;;;11.50;87.00;;;;;;5093371;28;20028;-79
2021/11/23 13:20:50;;;;;;;4.18;3.05;;;11.50;87.00;;;;;;5093204;28;20020;-79
2021/11/23 13:23:36;;;;;;;5.57;3.15;;;11.60;87.10;;;;;;5093211;28;20024;-77